Walls, Mississippi
Current Conditions -  °F | °C
As of 12:01 PM on Sunday 23 Nov 2014 (Local Time) from KMEM Reporting Station
Light Rain Light Rain  
Wind Chill: 16°   Ceiling: 900
Heat Index: 16°   Visibility: 2mi
Dew Point: 14°   Wind: 10mph
Humidity: 88%   Direction: 110°ESE
Pressure: 29.46"   Gusts: NA
Location:  34.94°N, 90.09°W
Report Text: KMEM 231801Z 11009KT 2SM -RA BKN009 OVC014 16/14 A2946 RMK AO2 SFC VIS 8 PRESFR P0001 $
Loading
Personal Weather Stations






























Interactive Weather Map New forecast layout! Learn more

10-Day Weather Forecast

Advertisements
Track Severe Weather on mobile